sensor_id;sensor_type;location;lat;lon;timestamp;P1;durP1;ratioP1;P2;durP2;ratioP2
3052;SDS011;1536;51.098;6.414;2023-12-07T00:02:26;13.52;;;11.63;;
3052;SDS011;1536;51.098;6.414;2023-12-07T00:04:54;15.40;;;11.20;;
3052;SDS011;1536;51.098;6.414;2023-12-07T00:07:21;14.85;;;12.32;;
3052;SDS011;1536;51.098;6.414;2023-12-07T00:09:48;17.10;;;12.70;;
3052;SDS011;1536;51.098;6.414;2023-12-07T00:12:15;16.08;;;12.82;;
3052;SDS011;1536;51.098;6.414;2023-12-07T00:14:41;16.48;;;12.93;;
3052;SDS011;1536;51.098;6.414;2023-12-07T00:17:08;14.88;;;12.80;;
3052;SDS011;1536;51.098;6.414;2023-12-07T00:19:35;16.27;;;12.45;;
3052;SDS011;1536;51.098;6.414;2023-12-07T00:22:03;14.07;;;12.57;;
3052;SDS011;1536;51.098;6.414;2023-12-07T00:24:30;15.10;;;11.65;;
3052;SDS011;1536;51.098;6.414;2023-12-07T00:26:56;15.38;;;13.10;;
3052;SDS011;1536;51.098;6.414;2023-12-07T00:29:23;16.58;;;13.05;;
3052;SDS011;1536;51.098;6.414;2023-12-07T00:31:50;17.95;;;13.82;;
3052;SDS011;1536;51.098;6.414;2023-12-07T00:34:17;17.55;;;12.70;;
3052;SDS011;1536;51.098;6.414;2023-12-07T00:36:43;16.42;;;12.95;;
3052;SDS011;1536;51.098;6.414;2023-12-07T00:39:11;17.75;;;12.60;;
3052;SDS011;1536;51.098;6.414;2023-12-07T00:41:38;22.17;;;13.25;;
3052;SDS011;1536;51.098;6.414;2023-12-07T00:44:05;16.10;;;12.77;;
3052;SDS011;1536;51.098;6.414;2023-12-07T00:46:32;17.58;;;14.30;;
3052;SDS011;1536;51.098;6.414;2023-12-07T00:48:58;17.85;;;12.80;;
3052;SDS011;1536;51.098;6.414;2023-12-07T00:51:25;21.67;;;14.88;;
3052;SDS011;1536;51.098;6.414;2023-12-07T00:53:52;17.85;;;13.18;;
3052;SDS011;1536;51.098;6.414;2023-12-07T00:56:20;17.70;;;12.95;;
3052;SDS011;1536;51.098;6.414;2023-12-07T00:58:47;18.77;;;13.10;;
3052;SDS011;1536;51.098;6.414;2023-12-07T01:01:13;19.20;;;13.25;;
3052;SDS011;1536;51.098;6.414;2023-12-07T01:03:40;18.00;;;13.63;;
3052;SDS011;1536;51.098;6.414;2023-12-07T01:06:07;16.95;;;13.10;;
3052;SDS011;1536;51.098;6.414;2023-12-07T01:08:35;17.30;;;13.88;;
3052;SDS011;1536;51.098;6.414;2023-12-07T01:11:02;14.57;;;12.35;;
3052;SDS011;1536;51.098;6.414;2023-12-07T01:13:30;17.85;;;13.32;;
3052;SDS011;1536;51.098;6.414;2023-12-07T01:15:57;15.02;;;12.98;;
3052;SDS011;1536;51.098;6.414;2023-12-07T01:18:24;14.30;;;12.10;;
3052;SDS011;1536;51.098;6.414;2023-12-07T01:20:50;15.50;;;12.07;;
3052;SDS011;1536;51.098;6.414;2023-12-07T01:23:17;14.40;;;12.52;;
3052;SDS011;1536;51.098;6.414;2023-12-07T01:25:44;14.52;;;12.13;;
3052;SDS011;1536;51.098;6.414;2023-12-07T01:28:10;19.15;;;12.68;;
3052;SDS011;1536;51.098;6.414;2023-12-07T01:30:38;14.15;;;12.05;;
3052;SDS011;1536;51.098;6.414;2023-12-07T01:33:05;14.30;;;12.63;;
3052;SDS011;1536;51.098;6.414;2023-12-07T01:35:32;14.65;;;12.73;;
3052;SDS011;1536;51.098;6.414;2023-12-07T01:37:59;14.68;;;12.80;;
3052;SDS011;1536;51.098;6.414;2023-12-07T01:40:25;17.15;;;12.57;;
3052;SDS011;1536;51.098;6.414;2023-12-07T01:42:52;17.02;;;12.25;;
3052;SDS011;1536;51.098;6.414;2023-12-07T01:45:19;19.33;;;14.50;;
3052;SDS011;1536;51.098;6.414;2023-12-07T01:47:48;22.75;;;13.18;;
3052;SDS011;1536;51.098;6.414;2023-12-07T01:50:17;17.58;;;13.60;;
3052;SDS011;1536;51.098;6.414;2023-12-07T01:52:48;16.50;;;11.82;;
3052;SDS011;1536;51.098;6.414;2023-12-07T01:55:18;19.17;;;12.95;;
3052;SDS011;1536;51.098;6.414;2023-12-07T01:57:46;22.35;;;12.52;;
3052;SDS011;1536;51.098;6.414;2023-12-07T02:00:14;21.25;;;13.70;;
3052;SDS011;1536;51.098;6.414;2023-12-07T02:02:42;24.65;;;15.75;;
3052;SDS011;1536;51.098;6.414;2023-12-07T02:05:11;21.50;;;13.98;;
3052;SDS011;1536;51.098;6.414;2023-12-07T02:07:39;17.80;;;13.55;;
3052;SDS011;1536;51.098;6.414;2023-12-07T02:10:07;18.20;;;14.02;;
3052;SDS011;1536;51.098;6.414;2023-12-07T02:12:34;23.55;;;14.93;;
3052;SDS011;1536;51.098;6.414;2023-12-07T02:15:01;25.13;;;17.67;;
3052;SDS011;1536;51.098;6.414;2023-12-07T02:17:32;29.58;;;16.75;;
3052;SDS011;1536;51.098;6.414;2023-12-07T02:20:03;17.10;;;13.95;;
3052;SDS011;1536;51.098;6.414;2023-12-07T02:22:39;21.50;;;14.65;;
3052;SDS011;1536;51.098;6.414;2023-12-07T02:25:09;23.98;;;14.13;;
3052;SDS011;1536;51.098;6.414;2023-12-07T02:27:38;20.80;;;16.13;;
3052;SDS011;1536;51.098;6.414;2023-12-07T02:30:07;23.67;;;14.73;;
3052;SDS011;1536;51.098;6.414;2023-12-07T02:32:35;20.15;;;13.80;;
3052;SDS011;1536;51.098;6.414;2023-12-07T02:35:02;23.13;;;16.20;;
3052;SDS011;1536;51.098;6.414;2023-12-07T02:37:32;18.77;;;15.00;;
3052;SDS011;1536;51.098;6.414;2023-12-07T02:40:04;23.00;;;16.60;;
3052;SDS011;1536;51.098;6.414;2023-12-07T02:42:35;15.63;;;12.88;;
3052;SDS011;1536;51.098;6.414;2023-12-07T02:45:05;19.65;;;13.07;;
3052;SDS011;1536;51.098;6.414;2023-12-07T02:47:32;18.65;;;13.80;;
3052;SDS011;1536;51.098;6.414;2023-12-07T02:49:59;22.83;;;15.57;;
3052;SDS011;1536;51.098;6.414;2023-12-07T02:52:26;18.25;;;14.35;;
3052;SDS011;1536;51.098;6.414;2023-12-07T02:54:53;27.23;;;16.52;;
3052;SDS011;1536;51.098;6.414;2023-12-07T02:57:20;20.55;;;16.23;;
3052;SDS011;1536;51.098;6.414;2023-12-07T02:59:47;21.55;;;16.45;;
3052;SDS011;1536;51.098;6.414;2023-12-07T03:02:15;25.73;;;15.80;;
3052;SDS011;1536;51.098;6.414;2023-12-07T03:04:42;26.17;;;18.00;;
3052;SDS011;1536;51.098;6.414;2023-12-07T03:07:09;23.13;;;16.08;;
3052;SDS011;1536;51.098;6.414;2023-12-07T03:09:35;27.42;;;16.55;;
3052;SDS011;1536;51.098;6.414;2023-12-07T03:12:02;19.65;;;15.20;;
3052;SDS011;1536;51.098;6.414;2023-12-07T03:14:29;23.02;;;15.18;;
3052;SDS011;1536;51.098;6.414;2023-12-07T03:16:56;20.35;;;15.50;;
3052;SDS011;1536;51.098;6.414;2023-12-07T03:19:24;22.40;;;15.55;;
3052;SDS011;1536;51.098;6.414;2023-12-07T03:21:51;20.20;;;14.98;;
3052;SDS011;1536;51.098;6.414;2023-12-07T03:24:18;26.00;;;15.60;;
3052;SDS011;1536;51.098;6.414;2023-12-07T03:26:45;20.52;;;16.40;;
3052;SDS011;1536;51.098;6.414;2023-12-07T03:29:11;27.65;;;15.90;;
3052;SDS011;1536;51.098;6.414;2023-12-07T03:31:38;20.80;;;16.10;;
3052;SDS011;1536;51.098;6.414;2023-12-07T03:34:05;24.48;;;15.90;;
3052;SDS011;1536;51.098;6.414;2023-12-07T03:36:33;20.10;;;15.65;;
3052;SDS011;1536;51.098;6.414;2023-12-07T03:39:00;22.35;;;15.75;;
3052;SDS011;1536;51.098;6.414;2023-12-07T03:41:29;23.23;;;14.63;;
3052;SDS011;1536;51.098;6.414;2023-12-07T03:43:56;19.83;;;13.98;;
3052;SDS011;1536;51.098;6.414;2023-12-07T03:46:23;19.55;;;15.40;;
3052;SDS011;1536;51.098;6.414;2023-12-07T03:48:50;24.75;;;15.82;;
3052;SDS011;1536;51.098;6.414;2023-12-07T03:51:16;23.45;;;14.75;;
3052;SDS011;1536;51.098;6.414;2023-12-07T03:53:44;20.73;;;13.93;;
3052;SDS011;1536;51.098;6.414;2023-12-07T03:56:12;17.88;;;14.35;;
3052;SDS011;1536;51.098;6.414;2023-12-07T03:58:48;22.73;;;15.45;;
3052;SDS011;1536;51.098;6.414;2023-12-07T04:01:15;19.15;;;15.18;;
3052;SDS011;1536;51.098;6.414;2023-12-07T04:03:42;24.70;;;15.00;;
3052;SDS011;1536;51.098;6.414;2023-12-07T04:06:09;19.20;;;14.15;;
3052;SDS011;1536;51.098;6.414;2023-12-07T04:08:36;19.13;;;13.93;;
3052;SDS011;1536;51.098;6.414;2023-12-07T04:11:04;19.20;;;15.23;;
3052;SDS011;1536;51.098;6.414;2023-12-07T04:13:31;20.98;;;14.07;;
3052;SDS011;1536;51.098;6.414;2023-12-07T04:16:00;19.83;;;13.80;;
3052;SDS011;1536;51.098;6.414;2023-12-07T04:18:28;24.20;;;16.13;;
3052;SDS011;1536;51.098;6.414;2023-12-07T04:20:55;22.63;;;14.85;;
3052;SDS011;1536;51.098;6.414;2023-12-07T04:23:21;20.38;;;15.45;;
3052;SDS011;1536;51.098;6.414;2023-12-07T04:25:48;34.42;;;18.50;;
3052;SDS011;1536;51.098;6.414;2023-12-07T04:28:16;30.15;;;17.42;;
3052;SDS011;1536;51.098;6.414;2023-12-07T04:30:43;23.08;;;17.45;;
3052;SDS011;1536;51.098;6.414;2023-12-07T04:33:10;30.88;;;19.77;;
3052;SDS011;1536;51.098;6.414;2023-12-07T04:35:36;31.10;;;19.00;;
3052;SDS011;1536;51.098;6.414;2023-12-07T04:38:03;28.33;;;18.58;;
3052;SDS011;1536;51.098;6.414;2023-12-07T04:40:30;31.08;;;18.00;;
3052;SDS011;1536;51.098;6.414;2023-12-07T04:42:57;33.67;;;20.00;;
3052;SDS011;1536;51.098;6.414;2023-12-07T04:45:25;24.92;;;17.25;;
3052;SDS011;1536;51.098;6.414;2023-12-07T04:47:52;29.92;;;19.75;;
3052;SDS011;1536;51.098;6.414;2023-12-07T04:50:19;31.10;;;20.17;;
3052;SDS011;1536;51.098;6.414;2023-12-07T04:52:45;26.48;;;19.00;;
3052;SDS011;1536;51.098;6.414;2023-12-07T04:55:12;30.83;;;17.33;;
3052;SDS011;1536;51.098;6.414;2023-12-07T04:57:40;33.10;;;18.92;;
3052;SDS011;1536;51.098;6.414;2023-12-07T05:00:07;29.77;;;18.77;;
3052;SDS011;1536;51.098;6.414;2023-12-07T05:02:37;28.80;;;18.83;;
3052;SDS011;1536;51.098;6.414;2023-12-07T05:05:04;31.33;;;18.30;;
3052;SDS011;1536;51.098;6.414;2023-12-07T05:07:31;30.73;;;19.00;;
3052;SDS011;1536;51.098;6.414;2023-12-07T05:09:58;38.83;;;18.88;;
3052;SDS011;1536;51.098;6.414;2023-12-07T05:12:25;33.38;;;20.58;;
3052;SDS011;1536;51.098;6.414;2023-12-07T05:14:52;30.63;;;19.65;;
3052;SDS011;1536;51.098;6.414;2023-12-07T05:17:18;29.85;;;17.58;;
3052;SDS011;1536;51.098;6.414;2023-12-07T05:19:47;37.97;;;22.08;;
3052;SDS011;1536;51.098;6.414;2023-12-07T05:22:13;30.05;;;18.35;;
3052;SDS011;1536;51.098;6.414;2023-12-07T05:24:40;30.60;;;20.42;;
3052;SDS011;1536;51.098;6.414;2023-12-07T05:27:07;33.17;;;19.30;;
3052;SDS011;1536;51.098;6.414;2023-12-07T05:29:34;26.48;;;18.13;;
3052;SDS011;1536;51.098;6.414;2023-12-07T05:32:00;40.95;;;19.15;;
3052;SDS011;1536;51.098;6.414;2023-12-07T05:34:27;25.95;;;18.17;;
3052;SDS011;1536;51.098;6.414;2023-12-07T05:36:55;36.80;;;17.15;;
3052;SDS011;1536;51.098;6.414;2023-12-07T05:39:22;28.08;;;17.50;;
3052;SDS011;1536;51.098;6.414;2023-12-07T05:41:49;29.98;;;19.63;;
3052;SDS011;1536;51.098;6.414;2023-12-07T05:44:16;23.83;;;16.77;;
3052;SDS011;1536;51.098;6.414;2023-12-07T05:46:46;23.70;;;16.38;;
3052;SDS011;1536;51.098;6.414;2023-12-07T05:49:13;24.63;;;17.30;;
3052;SDS011;1536;51.098;6.414;2023-12-07T05:51:40;26.42;;;17.48;;
3052;SDS011;1536;51.098;6.414;2023-12-07T05:54:08;32.85;;;17.40;;
3052;SDS011;1536;51.098;6.414;2023-12-07T05:56:34;25.88;;;16.13;;
3052;SDS011;1536;51.098;6.414;2023-12-07T05:59:01;40.65;;;19.27;;
3052;SDS011;1536;51.098;6.414;2023-12-07T06:01:28;24.23;;;17.50;;
3052;SDS011;1536;51.098;6.414;2023-12-07T06:03:55;22.95;;;16.08;;
3052;SDS011;1536;51.098;6.414;2023-12-07T06:06:22;22.52;;;16.52;;
3052;SDS011;1536;51.098;6.414;2023-12-07T06:08:48;23.85;;;17.60;;
3052;SDS011;1536;51.098;6.414;2023-12-07T06:11:17;23.60;;;16.13;;
3052;SDS011;1536;51.098;6.414;2023-12-07T06:13:43;21.65;;;15.10;;
3052;SDS011;1536;51.098;6.414;2023-12-07T06:16:13;21.70;;;16.00;;
3052;SDS011;1536;51.098;6.414;2023-12-07T06:18:40;23.30;;;16.30;;
3052;SDS011;1536;51.098;6.414;2023-12-07T06:21:07;26.88;;;16.48;;
3052;SDS011;1536;51.098;6.414;2023-12-07T06:23:34;23.63;;;17.52;;
3052;SDS011;1536;51.098;6.414;2023-12-07T06:26:01;46.25;;;18.42;;
3052;SDS011;1536;51.098;6.414;2023-12-07T06:28:31;57.65;;;17.25;;
3052;SDS011;1536;51.098;6.414;2023-12-07T06:30:59;28.90;;;17.27;;
3052;SDS011;1536;51.098;6.414;2023-12-07T06:33:31;28.60;;;17.13;;
3052;SDS011;1536;51.098;6.414;2023-12-07T06:35:57;41.75;;;17.17;;
3052;SDS011;1536;51.098;6.414;2023-12-07T06:38:24;32.70;;;15.30;;
3052;SDS011;1536;51.098;6.414;2023-12-07T06:40:51;22.08;;;16.33;;
3052;SDS011;1536;51.098;6.414;2023-12-07T06:43:17;21.15;;;14.07;;
3052;SDS011;1536;51.098;6.414;2023-12-07T06:45:45;35.85;;;13.25;;
3052;SDS011;1536;51.098;6.414;2023-12-07T06:48:12;27.02;;;13.48;;
3052;SDS011;1536;51.098;6.414;2023-12-07T06:50:39;23.17;;;11.85;;
3052;SDS011;1536;51.098;6.414;2023-12-07T06:53:06;20.13;;;11.52;;
3052;SDS011;1536;51.098;6.414;2023-12-07T06:55:33;26.10;;;12.68;;
3052;SDS011;1536;51.098;6.414;2023-12-07T06:58:00;16.08;;;12.15;;
3052;SDS011;1536;51.098;6.414;2023-12-07T07:00:26;19.13;;;13.20;;
3052;SDS011;1536;51.098;6.414;2023-12-07T07:02:54;16.85;;;13.82;;
3052;SDS011;1536;51.098;6.414;2023-12-07T07:05:22;20.98;;;14.07;;
3052;SDS011;1536;51.098;6.414;2023-12-07T07:07:49;19.42;;;14.85;;
3052;SDS011;1536;51.098;6.414;2023-12-07T07:10:16;20.15;;;13.88;;
3052;SDS011;1536;51.098;6.414;2023-12-07T07:12:43;19.83;;;12.52;;
3052;SDS011;1536;51.098;6.414;2023-12-07T07:15:10;19.25;;;11.80;;
3052;SDS011;1536;51.098;6.414;2023-12-07T07:17:36;14.18;;;12.70;;
3052;SDS011;1536;51.098;6.414;2023-12-07T07:20:05;20.23;;;12.75;;
3052;SDS011;1536;51.098;6.414;2023-12-07T07:22:33;22.13;;;13.48;;
3052;SDS011;1536;51.098;6.414;2023-12-07T07:25:00;19.73;;;12.85;;
3052;SDS011;1536;51.098;6.414;2023-12-07T07:27:27;24.15;;;13.65;;
3052;SDS011;1536;51.098;6.414;2023-12-07T07:29:53;21.70;;;13.20;;
3052;SDS011;1536;51.098;6.414;2023-12-07T07:32:20;26.92;;;15.88;;
3052;SDS011;1536;51.098;6.414;2023-12-07T07:34:48;21.40;;;15.10;;
3052;SDS011;1536;51.098;6.414;2023-12-07T07:37:16;21.48;;;14.05;;
3052;SDS011;1536;51.098;6.414;2023-12-07T07:39:44;23.27;;;13.45;;
3052;SDS011;1536;51.098;6.414;2023-12-07T07:42:12;16.20;;;12.90;;
3052;SDS011;1536;51.098;6.414;2023-12-07T07:44:38;25.52;;;14.02;;
3052;SDS011;1536;51.098;6.414;2023-12-07T07:47:06;18.63;;;13.07;;
3052;SDS011;1536;51.098;6.414;2023-12-07T07:49:33;21.05;;;13.63;;
3052;SDS011;1536;51.098;6.414;2023-12-07T07:52:00;23.83;;;13.27;;
3052;SDS011;1536;51.098;6.414;2023-12-07T07:54:28;23.10;;;14.48;;
3052;SDS011;1536;51.098;6.414;2023-12-07T07:56:54;18.30;;;13.50;;
3052;SDS011;1536;51.098;6.414;2023-12-07T07:59:21;19.20;;;12.80;;
3052;SDS011;1536;51.098;6.414;2023-12-07T08:01:48;24.90;;;13.88;;
3052;SDS011;1536;51.098;6.414;2023-12-07T08:04:15;29.05;;;14.50;;
3052;SDS011;1536;51.098;6.414;2023-12-07T08:06:42;17.55;;;13.90;;
3052;SDS011;1536;51.098;6.414;2023-12-07T08:09:09;22.88;;;14.88;;
3052;SDS011;1536;51.098;6.414;2023-12-07T08:11:37;18.90;;;13.65;;
3052;SDS011;1536;51.098;6.414;2023-12-07T08:14:03;23.27;;;13.60;;
3052;SDS011;1536;51.098;6.414;2023-12-07T08:16:30;23.65;;;15.02;;
3052;SDS011;1536;51.098;6.414;2023-12-07T08:18:57;21.15;;;14.80;;
3052;SDS011;1536;51.098;6.414;2023-12-07T08:21:25;18.85;;;14.10;;
3052;SDS011;1536;51.098;6.414;2023-12-07T08:23:54;23.45;;;12.90;;
3052;SDS011;1536;51.098;6.414;2023-12-07T08:26:21;25.38;;;14.70;;
3052;SDS011;1536;51.098;6.414;2023-12-07T08:28:49;18.35;;;12.75;;
3052;SDS011;1536;51.098;6.414;2023-12-07T08:31:18;20.02;;;12.70;;
3052;SDS011;1536;51.098;6.414;2023-12-07T08:33:48;22.60;;;14.57;;
3052;SDS011;1536;51.098;6.414;2023-12-07T08:36:14;18.17;;;13.75;;
3052;SDS011;1536;51.098;6.414;2023-12-07T08:38:41;20.50;;;13.57;;
3052;SDS011;1536;51.098;6.414;2023-12-07T08:41:08;20.63;;;12.10;;
3052;SDS011;1536;51.098;6.414;2023-12-07T08:43:35;18.55;;;12.63;;
3052;SDS011;1536;51.098;6.414;2023-12-07T08:46:03;17.13;;;12.15;;
3052;SDS011;1536;51.098;6.414;2023-12-07T08:48:32;18.52;;;13.25;;
3052;SDS011;1536;51.098;6.414;2023-12-07T08:50:58;15.57;;;12.02;;
3052;SDS011;1536;51.098;6.414;2023-12-07T08:53:27;18.63;;;11.27;;
3052;SDS011;1536;51.098;6.414;2023-12-07T08:55:53;19.45;;;11.55;;
3052;SDS011;1536;51.098;6.414;2023-12-07T08:58:20;23.80;;;12.50;;
3052;SDS011;1536;51.098;6.414;2023-12-07T09:03:19;17.58;;;13.25;;
3052;SDS011;1536;51.098;6.414;2023-12-07T09:05:50;25.20;;;12.88;;
3052;SDS011;1536;51.098;6.414;2023-12-07T09:08:17;18.35;;;12.82;;
3052;SDS011;1536;51.098;6.414;2023-12-07T09:10:44;16.83;;;12.60;;
3052;SDS011;1536;51.098;6.414;2023-12-07T09:13:10;18.65;;;11.88;;
3052;SDS011;1536;51.098;6.414;2023-12-07T09:15:37;19.85;;;13.43;;
3052;SDS011;1536;51.098;6.414;2023-12-07T09:18:04;20.17;;;12.23;;
3052;SDS011;1536;51.098;6.414;2023-12-07T09:20:32;19.35;;;13.10;;
3052;SDS011;1536;51.098;6.414;2023-12-07T09:22:59;19.10;;;13.25;;
3052;SDS011;1536;51.098;6.414;2023-12-07T09:25:26;21.98;;;13.00;;
3052;SDS011;1536;51.098;6.414;2023-12-07T09:27:52;16.60;;;11.85;;
3052;SDS011;1536;51.098;6.414;2023-12-07T09:30:19;16.88;;;11.88;;
3052;SDS011;1536;51.098;6.414;2023-12-07T09:32:46;16.35;;;11.50;;
3052;SDS011;1536;51.098;6.414;2023-12-07T09:35:13;18.65;;;13.02;;
3052;SDS011;1536;51.098;6.414;2023-12-07T09:37:45;16.38;;;12.10;;
3052;SDS011;1536;51.098;6.414;2023-12-07T09:40:15;16.95;;;12.80;;
3052;SDS011;1536;51.098;6.414;2023-12-07T09:42:43;23.70;;;13.80;;
3052;SDS011;1536;51.098;6.414;2023-12-07T09:45:11;18.20;;;12.32;;
3052;SDS011;1536;51.098;6.414;2023-12-07T09:47:37;17.90;;;13.65;;
3052;SDS011;1536;51.098;6.414;2023-12-07T09:50:06;20.67;;;12.75;;
3052;SDS011;1536;51.098;6.414;2023-12-07T09:52:34;20.15;;;12.52;;
3052;SDS011;1536;51.098;6.414;2023-12-07T09:55:03;14.45;;;10.95;;
3052;SDS011;1536;51.098;6.414;2023-12-07T09:57:31;16.83;;;11.57;;
3052;SDS011;1536;51.098;6.414;2023-12-07T09:59:59;19.58;;;12.18;;
3052;SDS011;1536;51.098;6.414;2023-12-07T10:02:25;17.95;;;12.00;;
3052;SDS011;1536;51.098;6.414;2023-12-07T10:05:03;14.73;;;12.73;;
3052;SDS011;1536;51.098;6.414;2023-12-07T10:07:31;17.38;;;12.55;;
3052;SDS011;1536;51.098;6.414;2023-12-07T10:09:59;23.02;;;12.30;;
3052;SDS011;1536;51.098;6.414;2023-12-07T10:12:29;20.35;;;11.30;;
3052;SDS011;1536;51.098;6.414;2023-12-07T10:14:56;23.20;;;11.93;;
3052;SDS011;1536;51.098;6.414;2023-12-07T10:20:19;15.65;;;12.57;;
3052;SDS011;1536;51.098;6.414;2023-12-07T10:22:48;17.65;;;12.43;;
3052;SDS011;1536;51.098;6.414;2023-12-07T10:25:27;17.13;;;11.38;;
3052;SDS011;1536;51.098;6.414;2023-12-07T10:27:56;19.95;;;11.63;;
3052;SDS011;1536;51.098;6.414;2023-12-07T10:30:23;14.88;;;12.40;;
3052;SDS011;1536;51.098;6.414;2023-12-07T10:32:50;17.23;;;12.40;;
3052;SDS011;1536;51.098;6.414;2023-12-07T10:35:18;19.35;;;11.77;;
3052;SDS011;1536;51.098;6.414;2023-12-07T10:37:45;24.98;;;13.23;;
3052;SDS011;1536;51.098;6.414;2023-12-07T10:40:12;19.15;;;11.68;;
3052;SDS011;1536;51.098;6.414;2023-12-07T10:45:51;16.55;;;11.70;;
3052;SDS011;1536;51.098;6.414;2023-12-07T10:48:18;18.02;;;11.73;;
3052;SDS011;1536;51.098;6.414;2023-12-07T10:50:46;16.67;;;11.70;;
3052;SDS011;1536;51.098;6.414;2023-12-07T10:53:19;17.55;;;11.48;;
3052;SDS011;1536;51.098;6.414;2023-12-07T10:55:53;15.65;;;11.48;;
3052;SDS011;1536;51.098;6.414;2023-12-07T10:58:22;19.27;;;11.80;;
3052;SDS011;1536;51.098;6.414;2023-12-07T11:00:51;15.57;;;11.07;;
3052;SDS011;1536;51.098;6.414;2023-12-07T11:03:19;19.67;;;10.95;;
3052;SDS011;1536;51.098;6.414;2023-12-07T11:05:47;17.25;;;11.25;;
3052;SDS011;1536;51.098;6.414;2023-12-07T11:08:16;15.63;;;12.10;;
3052;SDS011;1536;51.098;6.414;2023-12-07T11:10:50;17.10;;;11.20;;
3052;SDS011;1536;51.098;6.414;2023-12-07T11:13:24;16.80;;;11.70;;
3052;SDS011;1536;51.098;6.414;2023-12-07T11:15:56;15.00;;;11.48;;
3052;SDS011;1536;51.098;6.414;2023-12-07T11:18:24;19.40;;;12.18;;
3052;SDS011;1536;51.098;6.414;2023-12-07T11:20:52;17.48;;;11.23;;
3052;SDS011;1536;51.098;6.414;2023-12-07T11:23:20;15.38;;;10.98;;
3052;SDS011;1536;51.098;6.414;2023-12-07T11:25:47;15.57;;;11.60;;
3052;SDS011;1536;51.098;6.414;2023-12-07T11:28:15;16.52;;;10.45;;
3052;SDS011;1536;51.098;6.414;2023-12-07T11:30:43;12.18;;;10.25;;
3052;SDS011;1536;51.098;6.414;2023-12-07T11:33:12;11.70;;;9.35;;
3052;SDS011;1536;51.098;6.414;2023-12-07T11:38:30;16.13;;;11.18;;
3052;SDS011;1536;51.098;6.414;2023-12-07T11:40:57;14.75;;;10.68;;
3052;SDS011;1536;51.098;6.414;2023-12-07T11:43:30;15.70;;;10.77;;
3052;SDS011;1536;51.098;6.414;2023-12-07T11:46:04;10.30;;;8.55;;
3052;SDS011;1536;51.098;6.414;2023-12-07T11:48:33;14.50;;;10.30;;
3052;SDS011;1536;51.098;6.414;2023-12-07T11:51:01;17.30;;;10.52;;
3052;SDS011;1536;51.098;6.414;2023-12-07T11:53:32;18.05;;;11.73;;
3052;SDS011;1536;51.098;6.414;2023-12-07T11:56:39;14.00;;;10.93;;
3052;SDS011;1536;51.098;6.414;2023-12-07T11:59:07;15.70;;;11.18;;
3052;SDS011;1536;51.098;6.414;2023-12-07T12:01:34;11.93;;;9.90;;
3052;SDS011;1536;51.098;6.414;2023-12-07T12:04:03;15.00;;;10.43;;
3052;SDS011;1536;51.098;6.414;2023-12-07T12:06:34;13.63;;;9.63;;
3052;SDS011;1536;51.098;6.414;2023-12-07T12:09:04;16.15;;;11.23;;
3052;SDS011;1536;51.098;6.414;2023-12-07T12:11:43;13.98;;;10.90;;
3052;SDS011;1536;51.098;6.414;2023-12-07T12:14:12;13.18;;;10.02;;
3052;SDS011;1536;51.098;6.414;2023-12-07T12:16:39;14.35;;;10.75;;
3052;SDS011;1536;51.098;6.414;2023-12-07T12:19:07;14.00;;;9.65;;
3052;SDS011;1536;51.098;6.414;2023-12-07T12:21:34;12.90;;;10.70;;
3052;SDS011;1536;51.098;6.414;2023-12-07T12:24:03;15.13;;;11.02;;
3052;SDS011;1536;51.098;6.414;2023-12-07T12:29:40;15.13;;;10.50;;
3052;SDS011;1536;51.098;6.414;2023-12-07T12:32:08;14.20;;;10.35;;
3052;SDS011;1536;51.098;6.414;2023-12-07T12:34:36;17.38;;;10.05;;
3052;SDS011;1536;51.098;6.414;2023-12-07T12:37:03;13.38;;;9.68;;
3052;SDS011;1536;51.098;6.414;2023-12-07T12:39:32;14.65;;;11.38;;
3052;SDS011;1536;51.098;6.414;2023-12-07T12:41:59;15.70;;;11.05;;
3052;SDS011;1536;51.098;6.414;2023-12-07T12:44:26;13.40;;;10.00;;
3052;SDS011;1536;51.098;6.414;2023-12-07T12:46:53;12.07;;;9.15;;
3052;SDS011;1536;51.098;6.414;2023-12-07T12:49:20;14.00;;;10.75;;
3052;SDS011;1536;51.098;6.414;2023-12-07T12:51:48;13.55;;;10.18;;
3052;SDS011;1536;51.098;6.414;2023-12-07T12:54:15;15.27;;;9.80;;
3052;SDS011;1536;51.098;6.414;2023-12-07T12:56:42;12.90;;;10.38;;
3052;SDS011;1536;51.098;6.414;2023-12-07T12:59:08;11.73;;;9.30;;
3052;SDS011;1536;51.098;6.414;2023-12-07T13:01:35;14.27;;;9.20;;
3052;SDS011;1536;51.098;6.414;2023-12-07T13:04:02;13.13;;;9.95;;
3052;SDS011;1536;51.098;6.414;2023-12-07T13:06:30;12.13;;;9.95;;
3052;SDS011;1536;51.098;6.414;2023-12-07T13:08:58;11.15;;;9.30;;
3052;SDS011;1536;51.098;6.414;2023-12-07T13:11:24;9.65;;;8.70;;
3052;SDS011;1536;51.098;6.414;2023-12-07T13:13:51;9.32;;;7.40;;
3052;SDS011;1536;51.098;6.414;2023-12-07T13:16:18;16.13;;;10.18;;
3052;SDS011;1536;51.098;6.414;2023-12-07T13:18:46;12.05;;;9.38;;
3052;SDS011;1536;51.098;6.414;2023-12-07T13:21:12;14.48;;;8.27;;
3052;SDS011;1536;51.098;6.414;2023-12-07T13:23:40;9.40;;;7.97;;
3052;SDS011;1536;51.098;6.414;2023-12-07T13:26:08;11.77;;;8.52;;
3052;SDS011;1536;51.098;6.414;2023-12-07T13:28:35;9.23;;;8.13;;
3052;SDS011;1536;51.098;6.414;2023-12-07T13:31:02;8.07;;;7.28;;
3052;SDS011;1536;51.098;6.414;2023-12-07T13:33:29;10.43;;;8.05;;
3052;SDS011;1536;51.098;6.414;2023-12-07T13:35:55;10.60;;;8.52;;
3052;SDS011;1536;51.098;6.414;2023-12-07T13:38:22;9.43;;;7.95;;
3052;SDS011;1536;51.098;6.414;2023-12-07T13:40:49;12.73;;;8.90;;
3052;SDS011;1536;51.098;6.414;2023-12-07T13:43:17;12.23;;;8.73;;
3052;SDS011;1536;51.098;6.414;2023-12-07T13:45:44;11.50;;;9.20;;
3052;SDS011;1536;51.098;6.414;2023-12-07T13:48:11;12.60;;;9.18;;
3052;SDS011;1536;51.098;6.414;2023-12-07T13:50:38;11.80;;;8.70;;
3052;SDS011;1536;51.098;6.414;2023-12-07T13:53:05;11.65;;;7.75;;
3052;SDS011;1536;51.098;6.414;2023-12-07T13:55:35;9.95;;;7.85;;
3052;SDS011;1536;51.098;6.414;2023-12-07T13:58:02;11.40;;;8.70;;
3052;SDS011;1536;51.098;6.414;2023-12-07T14:00:31;15.60;;;8.57;;
3052;SDS011;1536;51.098;6.414;2023-12-07T14:02:57;16.17;;;9.20;;
3052;SDS011;1536;51.098;6.414;2023-12-07T14:05:24;17.30;;;9.07;;
3052;SDS011;1536;51.098;6.414;2023-12-07T14:07:51;11.65;;;8.07;;
3052;SDS011;1536;51.098;6.414;2023-12-07T14:10:18;11.30;;;9.43;;
3052;SDS011;1536;51.098;6.414;2023-12-07T14:12:45;13.50;;;9.10;;
3052;SDS011;1536;51.098;6.414;2023-12-07T14:15:11;11.43;;;8.25;;
3052;SDS011;1536;51.098;6.414;2023-12-07T14:17:39;10.20;;;7.95;;
3052;SDS011;1536;51.098;6.414;2023-12-07T14:20:06;11.25;;;8.75;;
3052;SDS011;1536;51.098;6.414;2023-12-07T14:22:34;15.65;;;9.25;;
3052;SDS011;1536;51.098;6.414;2023-12-07T14:25:01;14.40;;;9.63;;
3052;SDS011;1536;51.098;6.414;2023-12-07T14:27:28;13.05;;;8.57;;
3052;SDS011;1536;51.098;6.414;2023-12-07T14:29:55;13.80;;;10.98;;
3052;SDS011;1536;51.098;6.414;2023-12-07T14:32:22;13.65;;;11.43;;
3052;SDS011;1536;51.098;6.414;2023-12-07T14:34:50;14.27;;;11.55;;
3052;SDS011;1536;51.098;6.414;2023-12-07T14:37:17;14.75;;;11.07;;
3052;SDS011;1536;51.098;6.414;2023-12-07T14:39:44;15.00;;;10.85;;
3052;SDS011;1536;51.098;6.414;2023-12-07T14:42:11;14.95;;;10.73;;
3052;SDS011;1536;51.098;6.414;2023-12-07T14:44:38;18.40;;;11.18;;
3052;SDS011;1536;51.098;6.414;2023-12-07T14:47:04;17.88;;;11.75;;
3052;SDS011;1536;51.098;6.414;2023-12-07T14:49:32;16.25;;;11.30;;
3052;SDS011;1536;51.098;6.414;2023-12-07T14:52:00;12.50;;;9.90;;
3052;SDS011;1536;51.098;6.414;2023-12-07T14:54:27;13.00;;;10.35;;
3052;SDS011;1536;51.098;6.414;2023-12-07T14:56:55;18.20;;;10.90;;
3052;SDS011;1536;51.098;6.414;2023-12-07T14:59:22;18.33;;;10.77;;
3052;SDS011;1536;51.098;6.414;2023-12-07T15:01:49;16.73;;;11.23;;
3052;SDS011;1536;51.098;6.414;2023-12-07T15:04:17;13.57;;;10.27;;
3052;SDS011;1536;51.098;6.414;2023-12-07T15:06:44;11.52;;;9.23;;
3052;SDS011;1536;51.098;6.414;2023-12-07T15:09:12;11.02;;;9.45;;